createdAt,value
2023-04-18T00:01:39.262Z,100448.09
2023-04-18T00:04:12.428Z,100449.10
2023-04-18T00:06:47.423Z,100447.25
2023-04-18T00:09:20.632Z,100440.31
2023-04-18T00:11:54.306Z,100443.80
2023-04-18T00:14:29.125Z,100447.25
2023-04-18T00:17:03.316Z,100443.80
2023-04-18T00:19:36.381Z,100439.50
2023-04-18T00:22:09.650Z,100440.31
2023-04-18T00:24:42.859Z,100430.71
2023-04-18T00:27:15.846Z,100431.72
2023-04-18T00:29:50.137Z,100428.43
2023-04-18T00:32:23.284Z,100425.78
2023-04-18T00:34:58.024Z,100433.73
2023-04-18T00:37:32.339Z,100424.77
2023-04-18T00:40:06.452Z,100424.77
2023-04-18T00:42:40.922Z,100427.63
2023-04-18T00:45:14.653Z,100425.14
2023-04-18T00:47:48.819Z,100423.33
2023-04-18T00:50:23.980Z,100421.48
2023-04-18T00:52:58.007Z,100404.94
2023-04-18T00:55:32.180Z,100403.30
2023-04-18T00:58:06.412Z,100393.06
2023-04-18T01:00:39.899Z,100390.41
2023-04-18T01:03:14.557Z,100392.05
2023-04-18T01:05:47.906Z,100389.78
2023-04-18T01:08:22.865Z,100392.42
2023-04-18T01:10:57.311Z,100375.25
2023-04-18T01:13:30.712Z,100383.20
2023-04-18T01:16:03.830Z,100372.59
2023-04-18T01:18:40.368Z,100369.78
2023-04-18T01:21:14.864Z,100371.59
2023-04-18T01:23:49.397Z,100363.64
2023-04-18T01:26:23.111Z,100362.00
2023-04-18T01:28:56.410Z,100358.53
2023-04-18T01:31:29.554Z,100357.91
2023-04-18T01:34:08.655Z,100355.89
2023-04-18T01:36:42.398Z,100353.61
2023-04-18T01:39:18.460Z,100351.33
2023-04-18T01:41:52.360Z,100343.38
2023-04-18T01:44:26.294Z,100347.84
2023-04-18T01:46:59.432Z,100353.15
2023-04-18T01:49:33.296Z,100348.85
2023-04-18T01:52:06.599Z,100352.52
2023-04-18T01:54:39.857Z,100344.77
2023-04-18T01:57:14.514Z,100352.88
2023-04-18T01:59:47.663Z,100350.23
2023-04-18T02:02:21.103Z,100352.88
2023-04-18T02:04:54.104Z,100349.43
2023-04-18T02:07:27.114Z,100349.43
2023-04-18T02:10:01.192Z,100341.27
2023-04-18T02:12:37.880Z,100355.36
2023-04-18T02:15:12.529Z,100349.86
2023-04-18T02:17:45.958Z,100349.05
2023-04-18T02:20:19.164Z,100345.40
2023-04-18T02:22:52.057Z,100344.39
2023-04-18T02:25:27.767Z,100346.20
2023-04-18T02:28:01.210Z,100341.91
2023-04-18T02:30:38.512Z,100343.55
2023-04-18T02:33:12.345Z,100350.50
2023-04-18T02:35:47.948Z,100354.99
2023-04-18T02:38:26.010Z,100343.38
2023-04-18T02:40:59.220Z,100348.05
2023-04-18T02:43:33.231Z,100345.40
2023-04-18T02:46:08.394Z,100343.55
2023-04-18T02:48:42.224Z,100339.09
2023-04-18T02:51:15.893Z,100346.84
2023-04-18T02:53:55.003Z,100351.33
2023-04-18T02:56:29.771Z,100357.44
2023-04-18T02:59:26.729Z,100354.79
2023-04-18T03:02:32.158Z,100358.45
2023-04-18T03:05:10.849Z,100355.80
2023-04-18T03:07:45.646Z,100362.74
2023-04-18T03:10:18.898Z,100361.10
2023-04-18T03:12:52.811Z,100359.08
2023-04-18T03:15:26.968Z,100351.12
2023-04-18T03:18:01.246Z,100359.28
2023-04-18T03:20:39.276Z,100359.45
2023-04-18T03:23:13.747Z,100359.45
2023-04-18T03:25:47.012Z,100360.30
2023-04-18T03:28:20.236Z,100365.59
2023-04-18T03:30:53.927Z,100369.89
2023-04-18T03:33:28.940Z,100367.23
2023-04-18T03:36:11.787Z,100362.94
2023-04-18T03:38:46.068Z,100362.74
2023-04-18T03:41:22.582Z,100360.92
2023-04-18T03:43:55.717Z,100359.28
2023-04-18T03:46:28.969Z,100353.98
2023-04-18T03:49:02.861Z,100357.44
2023-04-18T03:51:43.381Z,100366.41
2023-04-18T03:54:17.560Z,100360.09
2023-04-18T03:56:50.626Z,100361.73
2023-04-18T03:59:25.480Z,100372.97
2023-04-18T04:01:58.778Z,100365.02
2023-04-18T04:04:31.947Z,100373.61
2023-04-18T04:07:05.230Z,100368.94
2023-04-18T04:09:38.322Z,100374.07
2023-04-18T04:12:12.370Z,100382.83
2023-04-18T04:14:45.463Z,100383.47
2023-04-18T04:17:19.695Z,100388.59
2023-04-18T04:19:53.824Z,100383.92
2023-04-18T04:22:27.516Z,100394.33
2023-04-18T04:25:02.921Z,100391.30
2023-04-18T04:27:42.911Z,100391.14
2023-04-18T04:30:17.997Z,100389.12
2023-04-18T04:32:52.164Z,100387.91
2023-04-18T04:35:26.742Z,100386.89
2023-04-18T04:38:01.793Z,100401.62
2023-04-18T04:40:47.609Z,100394.30
2023-04-18T04:43:21.756Z,100408.00
2023-04-18T04:45:57.809Z,100399.03
2023-04-18T04:48:32.402Z,100409.27
2023-04-18T04:51:07.976Z,100404.42
2023-04-18T04:53:41.812Z,100405.86
2023-04-18T04:56:14.988Z,100400.17
2023-04-18T04:58:49.908Z,100406.75
2023-04-18T05:01:49.690Z,100412.52
2023-04-18T05:04:26.073Z,100410.49
2023-04-18T05:06:59.890Z,100406.63
2023-04-18T05:09:34.667Z,100416.22
2023-04-18T05:12:08.562Z,100408.09
2023-04-18T05:14:41.617Z,100403.20
2023-04-18T05:17:18.970Z,100410.16
2023-04-18T05:19:53.361Z,100415.92
2023-04-18T05:22:27.975Z,100417.36
2023-04-18T05:27:40.061Z,100421.53
2023-04-18T05:30:14.043Z,100422.79
2023-04-18T05:32:51.395Z,100422.23
2023-04-18T05:35:26.390Z,100431.45
2023-04-18T05:38:00.580Z,100427.58
2023-04-18T05:40:35.163Z,100424.36
2023-04-18T05:43:08.384Z,100433.77
2023-04-18T05:45:42.330Z,100436.66
2023-04-18T05:48:16.217Z,100443.23
2023-04-18T05:50:49.340Z,100443.86
2023-04-18T05:53:23.425Z,100447.59
2023-04-18T05:55:57.778Z,100457.63
2023-04-18T05:58:33.540Z,100458.89
2023-04-18T06:01:07.053Z,100451.16
2023-04-18T06:03:40.880Z,100456.30
2023-04-18T06:06:15.675Z,100457.73
2023-04-18T06:08:49.228Z,100456.17
2023-04-18T06:11:23.311Z,100456.42
2023-04-18T06:13:56.946Z,100462.36
2023-04-18T06:16:29.937Z,100457.85
2023-04-18T06:19:05.367Z,100463.79
2023-04-18T06:21:42.189Z,100453.78
2023-04-18T06:24:16.045Z,100457.70
2023-04-18T06:26:49.846Z,100460.80
2023-04-18T06:29:23.404Z,100458.38
2023-04-18T06:31:57.610Z,100455.14
2023-04-18T06:34:33.338Z,100457.20
2023-04-18T06:37:07.253Z,100458.27
2023-04-18T06:39:41.358Z,100448.05
2023-04-18T06:42:14.761Z,100452.58
2023-04-18T06:44:51.302Z,100454.66
2023-04-18T06:47:24.418Z,100457.55
2023-04-18T06:49:57.869Z,100463.09
2023-04-18T06:52:31.441Z,100463.89
2023-04-18T06:55:05.120Z,100462.07
2023-04-18T06:57:41.233Z,100469.03
2023-04-18T07:00:16.757Z,100464.12
2023-04-18T07:02:52.051Z,100465.58
2023-04-18T07:05:26.071Z,100473.16
2023-04-18T07:08:00.615Z,100465.41
2023-04-18T07:10:35.445Z,100468.47
2023-04-18T07:13:08.627Z,100466.25
2023-04-18T07:15:44.195Z,100465.01
2023-04-18T07:18:30.141Z,100474.45
2023-04-18T07:21:10.271Z,100469.34
2023-04-18T07:23:45.860Z,100467.71
2023-04-18T07:26:19.196Z,100466.91
2023-04-18T07:28:52.406Z,100470.63
2023-04-18T07:31:25.986Z,100465.52
2023-04-18T07:33:59.576Z,100470.83
2023-04-18T07:36:34.385Z,100471.05
2023-04-18T07:39:07.331Z,100471.48
2023-04-18T07:41:40.578Z,100475.99
2023-04-18T07:44:13.969Z,100470.87
2023-04-18T07:46:47.418Z,100471.70
2023-04-18T07:49:21.051Z,100472.34
2023-04-18T07:51:54.900Z,100473.38
2023-04-18T07:54:28.201Z,100481.35
2023-04-18T07:57:03.395Z,100479.50
2023-04-18T07:59:36.981Z,100475.61
2023-04-18T08:02:10.500Z,100477.25
2023-04-18T08:04:43.827Z,100473.95
2023-04-18T08:07:19.178Z,100474.37
2023-04-18T08:09:53.879Z,100477.23
2023-04-18T08:12:27.110Z,100469.43
2023-04-18T08:15:00.154Z,100475.56
2023-04-18T08:17:33.579Z,100474.51
2023-04-18T08:20:07.778Z,100484.95
2023-04-18T08:22:53.659Z,100474.88
2023-04-18T08:25:36.837Z,100473.20
2023-04-18T08:28:10.092Z,100478.05
2023-04-18T08:30:48.906Z,100484.15
2023-04-18T08:33:23.182Z,100478.53
2023-04-18T08:35:56.049Z,100475.38
2023-04-18T08:38:30.125Z,100467.07
2023-04-18T08:41:08.121Z,100466.97
2023-04-18T08:44:01.970Z,100471.11
2023-04-18T08:46:37.881Z,100468.47
2023-04-18T08:49:12.868Z,100473.48
2023-04-18T08:51:48.741Z,100477.87
2023-04-18T08:54:25.022Z,100473.84
2023-04-18T08:57:10.531Z,100475.77
2023-04-18T08:59:46.360Z,100479.18
2023-04-18T09:02:22.197Z,100477.39
2023-04-18T09:04:56.052Z,100476.03
2023-04-18T09:07:46.768Z,100483.76
2023-04-18T09:10:29.072Z,100475.17
2023-04-18T09:13:03.398Z,100482.89
2023-04-18T09:15:39.419Z,100484.20
2023-04-18T09:18:13.227Z,100487.59
2023-04-18T09:20:47.742Z,100483.55
2023-04-18T09:23:27.004Z,100478.91
2023-04-18T09:26:34.077Z,100470.14
2023-04-18T09:29:17.611Z,100473.06
2023-04-18T09:32:03.136Z,100464.22
2023-04-18T09:34:38.467Z,100456.88
2023-04-18T09:37:14.042Z,100453.02
2023-04-18T09:39:48.398Z,100463.76
2023-04-18T09:42:22.306Z,100458.26
2023-04-18T09:45:09.518Z,100457.68
2023-04-18T09:47:44.315Z,100451.70
2023-04-18T09:50:18.494Z,100459.86
2023-04-18T09:52:51.601Z,100454.49
2023-04-18T09:55:25.121Z,100456.23
2023-04-18T09:58:00.950Z,100444.07
2023-04-18T10:00:35.379Z,100450.02
2023-04-18T10:03:10.037Z,100450.85
2023-04-18T10:05:43.822Z,100442.06
2023-04-18T10:08:17.502Z,100445.33
2023-04-18T10:10:53.778Z,100451.42
2023-04-18T10:13:27.768Z,100445.23
2023-04-18T10:16:01.439Z,100453.77
2023-04-18T10:18:34.877Z,100448.72
2023-04-18T10:21:10.258Z,100456.78
2023-04-18T10:23:46.068Z,100460.19
2023-04-18T10:26:19.565Z,100454.44
2023-04-18T10:29:01.027Z,100447.69
2023-04-18T10:31:41.667Z,100453.28
2023-04-18T10:34:18.352Z,100450.03
2023-04-18T10:37:08.324Z,100449.40
2023-04-18T10:40:00.489Z,100443.55
2023-04-18T10:42:58.215Z,100449.17
2023-04-18T10:45:36.595Z,100445.56
2023-04-18T10:48:30.313Z,100442.08
2023-04-18T10:51:18.331Z,100429.90
2023-04-18T10:53:58.324Z,100440.00
2023-04-18T10:56:33.034Z,100431.33
2023-04-18T10:59:07.294Z,100436.89
2023-04-18T11:01:45.904Z,100439.00
2023-04-18T11:04:19.707Z,100431.60
2023-04-18T11:06:57.797Z,100431.69
2023-04-18T11:09:31.388Z,100423.37
2023-04-18T11:12:09.607Z,100425.91
2023-04-18T11:14:47.317Z,100426.00
2023-04-18T11:17:22.335Z,100430.97
2023-04-18T11:20:04.724Z,100425.19
2023-04-18T11:22:46.723Z,100426.33
2023-04-18T11:25:22.307Z,100418.75
2023-04-18T11:27:56.358Z,100420.38
2023-04-18T11:30:31.544Z,100415.72
2023-04-18T11:33:11.432Z,100411.33
2023-04-18T11:35:46.697Z,100425.59
2023-04-18T11:38:19.817Z,100417.27
2023-04-18T11:40:54.749Z,100413.87
2023-04-18T11:43:29.465Z,100421.94
2023-04-18T11:46:02.821Z,100411.75
2023-04-18T11:48:41.281Z,100416.37
2023-04-18T11:51:35.883Z,100413.37
2023-04-18T11:54:43.753Z,100413.03
2023-04-18T11:57:27.430Z,100412.31
2023-04-18T12:00:02.169Z,100407.25
2023-04-18T12:02:47.387Z,100410.20
2023-04-18T12:05:30.938Z,100411.08
2023-04-18T12:08:11.585Z,100414.59
2023-04-18T12:10:51.622Z,100411.34
2023-04-18T12:13:33.726Z,100416.86
2023-04-18T12:16:08.006Z,100419.47
2023-04-18T12:18:42.013Z,100414.58
2023-04-18T12:21:17.222Z,100412.64
2023-04-18T12:23:50.578Z,100408.73
2023-04-18T12:26:27.554Z,100413.45
2023-04-18T12:29:16.471Z,100403.98
2023-04-18T12:31:50.492Z,100410.91
2023-04-18T12:34:24.491Z,100413.50
2023-04-18T12:36:57.512Z,100416.84
2023-04-18T12:39:31.739Z,100409.98
2023-04-18T12:42:05.740Z,100411.20
2023-04-18T12:44:38.850Z,100414.27
2023-04-18T12:47:12.005Z,100416.50
2023-04-18T12:49:45.210Z,100410.81
2023-04-18T12:52:18.300Z,100415.61
2023-04-18T12:54:51.511Z,100416.05
2023-04-18T12:57:24.815Z,100427.74
2023-04-18T12:59:57.994Z,100414.32
2023-04-18T13:02:32.279Z,100418.06
2023-04-18T13:05:05.319Z,100421.22
2023-04-18T13:07:40.630Z,100418.44
2023-04-18T13:10:16.314Z,100413.55
2023-04-18T13:12:50.830Z,100409.70
2023-04-18T13:15:24.627Z,100421.02
2023-04-18T13:18:04.667Z,100414.81
2023-04-18T13:20:39.102Z,100416.13
2023-04-18T13:23:12.339Z,100414.14
2023-04-18T13:25:45.415Z,100419.75
2023-04-18T13:28:18.550Z,100409.24
2023-04-18T13:30:51.964Z,100413.81
2023-04-18T13:33:26.582Z,100410.88
2023-04-18T13:35:59.849Z,100418.92
2023-04-18T13:38:32.904Z,100413.55
2023-04-18T13:41:21.450Z,100409.59
2023-04-18T13:43:55.049Z,100415.77
2023-04-18T13:46:28.713Z,100409.02
2023-04-18T13:49:02.147Z,100403.40
2023-04-18T13:51:36.564Z,100407.49
2023-04-18T13:54:10.350Z,100410.17
2023-04-18T13:56:45.116Z,100412.98
2023-04-18T13:59:18.242Z,100405.66
2023-04-18T14:01:51.964Z,100402.03
2023-04-18T14:04:25.525Z,100399.24
2023-04-18T14:07:00.514Z,100400.55
2023-04-18T14:09:33.452Z,100401.23
2023-04-18T14:12:08.927Z,100404.17
2023-04-18T14:14:42.164Z,100394.96
2023-04-18T14:17:15.326Z,100397.06
2023-04-18T14:19:49.522Z,100394.59
2023-04-18T14:22:22.587Z,100394.84
2023-04-18T14:24:56.322Z,100395.66
2023-04-18T14:27:29.843Z,100392.97
2023-04-18T14:30:02.925Z,100389.70
2023-04-18T14:32:36.316Z,100392.05
2023-04-18T14:35:11.406Z,100393.33
2023-04-18T14:37:45.912Z,100387.38
2023-04-18T14:40:20.674Z,100394.27
2023-04-18T14:42:53.986Z,100399.05
2023-04-18T14:45:27.223Z,100391.83
2023-04-18T14:48:01.231Z,100393.46
2023-04-18T14:50:36.095Z,100391.25
2023-04-18T14:53:11.661Z,100385.52
2023-04-18T14:55:46.134Z,100391.13
2023-04-18T14:58:19.568Z,100380.05
2023-04-18T15:00:57.708Z,100385.19
2023-04-18T15:03:31.006Z,100386.45
2023-04-18T15:06:05.070Z,100385.29
2023-04-18T15:08:38.071Z,100387.39
2023-04-18T15:11:12.414Z,100379.59
2023-04-18T15:13:47.732Z,100376.91
2023-04-18T15:16:21.802Z,100382.02
2023-04-18T15:18:54.863Z,100380.18
2023-04-18T15:21:28.159Z,100377.96
2023-04-18T15:24:01.135Z,100377.38
2023-04-18T15:26:34.517Z,100372.23
2023-04-18T15:29:18.225Z,100371.63
2023-04-18T15:31:51.536Z,100367.53
2023-04-18T15:34:24.458Z,100362.17
2023-04-18T15:36:58.013Z,100364.05
2023-04-18T15:39:31.221Z,100370.45
2023-04-18T15:42:07.172Z,100366.02
2023-04-18T15:44:41.582Z,100364.27
2023-04-18T15:47:14.836Z,100365.07
2023-04-18T15:49:48.034Z,100360.77
2023-04-18T15:52:20.887Z,100362.05
2023-04-18T15:54:55.348Z,100360.64
2023-04-18T15:57:29.766Z,100361.10
2023-04-18T16:00:05.666Z,100365.07
2023-04-18T16:02:38.667Z,100362.61
2023-04-18T16:05:13.093Z,100359.13
2023-04-18T16:07:46.818Z,100362.27
2023-04-18T16:10:19.856Z,100367.26
2023-04-18T16:12:53.776Z,100366.08
2023-04-18T16:15:27.112Z,100360.39
2023-04-18T16:18:00.316Z,100366.41
2023-04-18T16:20:33.701Z,100364.66
2023-04-18T16:23:07.286Z,100364.52
2023-04-18T16:25:41.669Z,100358.00
2023-04-18T16:28:14.855Z,100361.96
2023-04-18T16:30:48.322Z,100367.53
2023-04-18T16:33:25.847Z,100360.41
2023-04-18T16:36:03.273Z,100370.53
2023-04-18T16:38:36.516Z,100369.94
2023-04-18T16:41:09.932Z,100366.53
2023-04-18T16:43:42.965Z,100370.70
2023-04-18T16:46:16.184Z,100371.99
2023-04-18T16:48:52.572Z,100374.98
2023-04-18T16:51:26.311Z,100378.31
2023-04-18T16:54:00.660Z,100377.97
2023-04-18T16:56:35.657Z,100380.70
2023-04-18T16:59:09.466Z,100381.36
2023-04-18T17:01:43.497Z,100375.04
2023-04-18T17:04:17.145Z,100379.65
2023-04-18T17:06:52.107Z,100374.39
2023-04-18T17:09:25.766Z,100374.24
2023-04-18T17:11:59.164Z,100371.42
2023-04-18T17:30:51.655Z,100376.28
2023-04-18T17:33:21.970Z,100383.97
2023-04-18T17:35:55.983Z,100377.86
2023-04-18T17:38:26.308Z,100376.48
2023-04-18T17:41:02.039Z,100382.30
2023-04-18T17:43:32.068Z,100390.77
2023-04-18T17:46:03.284Z,100394.48
2023-04-18T17:48:33.738Z,100392.50
2023-04-18T17:51:04.073Z,100394.80
2023-04-18T17:53:34.382Z,100398.55
2023-04-18T17:56:05.891Z,100402.87
2023-04-18T17:58:36.449Z,100400.02
2023-04-18T18:01:16.667Z,100405.39
2023-04-18T18:03:47.794Z,100396.59
2023-04-18T18:06:18.708Z,100400.11
2023-04-18T18:08:48.613Z,100401.55
2023-04-18T18:11:18.932Z,100401.36
2023-04-18T18:13:51.290Z,100404.86
2023-04-18T18:16:21.261Z,100395.84
2023-04-18T18:18:52.159Z,100405.50
2023-04-18T18:21:22.680Z,100398.95
2023-04-18T18:23:53.213Z,100391.79
2023-04-18T18:26:26.078Z,100388.92
2023-04-18T18:28:56.524Z,100388.12
2023-04-18T18:31:27.059Z,100391.39
2023-04-18T18:33:57.378Z,100390.39
2023-04-18T18:36:28.041Z,100388.30
2023-04-18T18:39:00.903Z,100396.70
2023-04-18T18:41:32.633Z,100399.58
2023-04-18T18:44:01.933Z,100398.35
2023-04-18T18:46:31.694Z,100404.89
2023-04-18T18:49:02.169Z,100403.88
2023-04-18T18:51:32.504Z,100404.29
2023-04-18T18:54:02.812Z,100405.31
2023-04-18T18:56:33.140Z,100389.75
2023-04-18T18:59:03.870Z,100391.18
2023-04-18T19:01:34.043Z,100390.34
2023-04-18T19:04:05.077Z,100391.59
2023-04-18T19:06:35.866Z,100393.02
2023-04-18T19:09:06.774Z,100390.55
2023-04-18T19:11:37.332Z,100389.92
2023-04-18T19:14:07.650Z,100386.65
2023-04-18T19:16:37.937Z,100391.17
2023-04-18T19:19:08.719Z,100390.74
2023-04-18T19:21:39.442Z,100395.27
2023-04-18T19:24:11.297Z,100390.34
2023-04-18T19:26:42.140Z,100393.00
2023-04-18T19:29:13.908Z,100402.01
2023-04-18T19:31:44.671Z,100399.53
2023-04-18T19:34:14.952Z,100399.75
2023-04-18T19:36:46.119Z,100411.42
2023-04-18T19:39:17.846Z,100402.60
2023-04-18T19:41:48.584Z,100401.80
2023-04-18T19:44:18.497Z,100396.66
2023-04-18T19:46:49.835Z,100391.55
2023-04-18T19:49:22.209Z,100392.77
2023-04-18T19:51:52.121Z,100387.84
2023-04-18T19:54:22.651Z,100390.11
2023-04-18T19:56:52.970Z,100379.86
2023-04-18T19:59:23.705Z,100385.59
2023-04-18T20:01:54.039Z,100379.44
2023-04-18T20:04:25.288Z,100385.59
2023-04-18T20:06:56.925Z,100379.03
2023-04-18T20:09:27.048Z,100378.20
2023-04-18T20:12:00.037Z,100379.62
2023-04-18T20:14:30.760Z,100377.98
2023-04-18T20:17:01.616Z,100385.95
2023-04-18T20:19:32.020Z,100383.30
2023-04-18T20:22:05.551Z,100378.20
2023-04-18T20:24:35.742Z,100386.80
2023-04-18T20:27:06.675Z,100380.86
2023-04-18T20:29:36.810Z,100380.02
2023-04-18T20:32:08.213Z,100379.22
2023-04-18T20:34:38.472Z,100374.91
2023-04-18T20:37:09.807Z,100384.72
2023-04-18T20:39:41.694Z,100383.08
2023-04-18T20:42:14.163Z,100370.80
2023-04-18T20:44:46.312Z,100374.30
2023-04-18T20:47:17.260Z,100376.95
2023-04-18T20:49:48.391Z,100373.46
2023-04-18T20:52:19.624Z,100369.16
2023-04-18T20:54:49.857Z,100366.50
2023-04-18T20:57:20.996Z,100364.86
2023-04-18T20:59:51.144Z,100358.73
2023-04-18T21:02:21.294Z,100364.86
2023-04-18T21:04:53.042Z,100353.42
2023-04-18T21:07:23.309Z,100351.78
2023-04-18T21:09:53.234Z,100350.95
2023-04-18T21:12:23.768Z,100352.80
2023-04-18T21:14:54.089Z,100341.73
2023-04-18T21:17:25.549Z,100344.61
2023-04-18T21:19:56.711Z,100337.64
2023-04-18T21:22:26.886Z,100338.66
2023-04-18T21:24:57.419Z,100335.17
2023-04-18T21:27:28.150Z,100341.33
2023-04-18T21:29:58.877Z,100345.00
2023-04-18T21:32:29.024Z,100344.17
2023-04-18T21:35:00.351Z,100344.17
2023-04-18T21:37:32.305Z,100344.38
2023-04-18T21:40:03.658Z,100348.06
2023-04-18T21:42:35.205Z,100345.41
2023-04-18T21:45:07.367Z,100344.56
2023-04-18T21:47:37.957Z,100348.25
2023-04-18T21:50:11.794Z,100340.48
2023-04-18T21:52:42.027Z,100338.02
2023-04-18T21:55:12.764Z,100339.03
2023-04-18T21:57:43.296Z,100345.37
2023-04-18T22:00:16.580Z,100336.77
2023-04-18T22:02:47.370Z,100338.19
2023-04-18T22:05:18.144Z,100346.38
2023-04-18T22:07:57.599Z,100344.12
2023-04-18T22:10:29.025Z,100345.14
2023-04-18T22:13:00.786Z,100341.46
2023-04-18T22:15:31.128Z,100338.98
2023-04-18T22:18:01.509Z,100344.12
2023-04-18T22:20:33.120Z,100339.61
2023-04-18T22:23:13.000Z,100341.25
2023-04-18T22:25:43.269Z,100341.87
2023-04-18T22:28:13.790Z,100338.41
2023-04-18T22:30:44.125Z,100347.19
2023-04-18T22:33:14.231Z,100340.05
2023-04-18T22:35:44.556Z,100331.05
2023-04-18T22:38:14.871Z,100337.38
2023-04-18T22:40:44.784Z,100338.41
2023-04-18T22:43:14.674Z,100331.45
2023-04-18T22:45:45.468Z,100328.79
2023-04-18T22:48:16.695Z,100331.45
2023-04-18T22:50:47.309Z,100327.16
2023-04-18T22:53:17.495Z,100323.66
2023-04-18T22:55:47.712Z,100328.17
2023-04-18T22:58:17.859Z,100322.02
2023-04-18T23:00:48.184Z,100326.53
2023-04-18T23:03:18.701Z,100320.19
2023-04-18T23:05:49.060Z,100318.55
2023-04-18T23:08:20.386Z,100312.62
2023-04-18T23:10:50.909Z,100311.78
2023-04-18T23:13:21.015Z,100297.87
2023-04-18T23:15:51.182Z,100297.87
2023-04-18T23:18:21.268Z,100298.09
2023-04-18T23:20:51.589Z,100291.13
2023-04-18T23:23:21.414Z,100289.49
2023-04-18T23:25:52.450Z,100284.36
2023-04-18T23:28:22.853Z,100286.22
2023-04-18T23:30:54.109Z,100292.34
2023-04-18T23:33:24.275Z,100280.25
2023-04-18T23:35:54.347Z,100280.25
2023-04-18T23:38:24.666Z,100278.61
2023-04-18T23:40:54.988Z,100284.14
2023-04-18T23:43:25.153Z,100279.01
2023-04-18T23:45:55.430Z,100272.05
2023-04-18T23:48:25.548Z,100272.27
2023-04-18T23:50:55.868Z,100271.44
2023-04-18T23:53:25.848Z,100268.78
2023-04-18T23:55:56.520Z,100260.00
2023-04-18T23:58:27.042Z,100254.88
